sensor_id;sensor_type;location;lat;lon;timestamp;pressure;altitude;pressure_sealevel;temperature;humidity
33781;BME280;20097;50.832;19.100;2023-04-27T00:01:24;98391.84;;;1.75;100.00
33781;BME280;20097;50.832;19.100;2023-04-27T00:06:29;98396.50;;;1.81;100.00
33781;BME280;20097;50.832;19.100;2023-04-27T00:11:34;98389.75;;;1.69;100.00
33781;BME280;20097;50.832;19.100;2023-04-27T00:16:38;98385.50;;;1.68;100.00
33781;BME280;20097;50.832;19.100;2023-04-27T00:21:44;98391.59;;;1.67;100.00
33781;BME280;20097;50.832;19.100;2023-04-27T00:26:48;98385.16;;;1.61;100.00
33781;BME280;20097;50.832;19.100;2023-04-27T00:31:52;98390.53;;;1.58;100.00
33781;BME280;20097;50.832;19.100;2023-04-27T00:36:58;98396.75;;;1.56;100.00
33781;BME280;20097;50.832;19.100;2023-04-27T00:42:02;98396.38;;;1.49;100.00
33781;BME280;20097;50.832;19.100;2023-04-27T00:47:08;98403.25;;;1.37;100.00
33781;BME280;20097;50.832;19.100;2023-04-27T00:52:14;98404.84;;;1.27;100.00
33781;BME280;20097;50.832;19.100;2023-04-27T00:57:18;98401.63;;;1.36;100.00
33781;BME280;20097;50.832;19.100;2023-04-27T01:02:22;98398.47;;;1.33;100.00
33781;BME280;20097;50.832;19.100;2023-04-27T01:07:28;98398.56;;;1.31;100.00
33781;BME280;20097;50.832;19.100;2023-04-27T01:12:33;98392.59;;;1.31;100.00
33781;BME280;20097;50.832;19.100;2023-04-27T01:17:39;98399.94;;;1.24;100.00
33781;BME280;20097;50.832;19.100;2023-04-27T01:22:44;98401.56;;;1.14;100.00
33781;BME280;20097;50.832;19.100;2023-04-27T01:27:51;98403.22;;;1.15;100.00
33781;BME280;20097;50.832;19.100;2023-04-27T01:32:55;98409.16;;;1.16;100.00
33781;BME280;20097;50.832;19.100;2023-04-27T01:37:59;98411.34;;;1.09;100.00
33781;BME280;20097;50.832;19.100;2023-04-27T01:43:05;98414.75;;;1.10;100.00
33781;BME280;20097;50.832;19.100;2023-04-27T01:48:10;98411.63;;;0.83;100.00
33781;BME280;20097;50.832;19.100;2023-04-27T01:53:14;98409.59;;;0.75;100.00
33781;BME280;20097;50.832;19.100;2023-04-27T01:58:20;98408.44;;;0.79;100.00
33781;BME280;20097;50.832;19.100;2023-04-27T02:03:24;98409.81;;;0.72;100.00
33781;BME280;20097;50.832;19.100;2023-04-27T02:08:29;98406.03;;;0.65;100.00
33781;BME280;20097;50.832;19.100;2023-04-27T02:13:34;98407.78;;;0.65;100.00
33781;BME280;20097;50.832;19.100;2023-04-27T02:18:39;98411.38;;;0.62;100.00
33781;BME280;20097;50.832;19.100;2023-04-27T02:23:44;98415.16;;;0.69;100.00
33781;BME280;20097;50.832;19.100;2023-04-27T02:28:49;98408.19;;;0.71;100.00
33781;BME280;20097;50.832;19.100;2023-04-27T02:33:54;98410.47;;;0.63;100.00
33781;BME280;20097;50.832;19.100;2023-04-27T02:39:00;98411.94;;;0.55;100.00
33781;BME280;20097;50.832;19.100;2023-04-27T02:44:05;98405.75;;;0.57;100.00
33781;BME280;20097;50.832;19.100;2023-04-27T02:49:09;98409.72;;;0.50;100.00
33781;BME280;20097;50.832;19.100;2023-04-27T02:54:14;98402.19;;;0.47;100.00
33781;BME280;20097;50.832;19.100;2023-04-27T02:59:20;98404.06;;;0.45;100.00
33781;BME280;20097;50.832;19.100;2023-04-27T03:04:24;98406.97;;;0.41;100.00
33781;BME280;20097;50.832;19.100;2023-04-27T03:09:30;98421.88;;;0.36;100.00
33781;BME280;20097;50.832;19.100;2023-04-27T03:14:36;98424.56;;;0.34;100.00
33781;BME280;20097;50.832;19.100;2023-04-27T03:19:40;98428.63;;;0.37;100.00
33781;BME280;20097;50.832;19.100;2023-04-27T03:24:44;98423.91;;;0.43;100.00
33781;BME280;20097;50.832;19.100;2023-04-27T03:29:51;98438.69;;;0.40;100.00
33781;BME280;20097;50.832;19.100;2023-04-27T03:34:55;98438.91;;;0.37;100.00
33781;BME280;20097;50.832;19.100;2023-04-27T03:39:59;98438.13;;;0.24;100.00
33781;BME280;20097;50.832;19.100;2023-04-27T03:45:06;98443.50;;;0.44;100.00
33781;BME280;20097;50.832;19.100;2023-04-27T03:50:11;98448.22;;;0.50;100.00
33781;BME280;20097;50.832;19.100;2023-04-27T03:55:15;98444.50;;;0.54;100.00
33781;BME280;20097;50.832;19.100;2023-04-27T04:00:21;98451.75;;;0.60;100.00
33781;BME280;20097;50.832;19.100;2023-04-27T04:05:25;98454.41;;;0.71;100.00
33781;BME280;20097;50.832;19.100;2023-04-27T04:10:30;98455.09;;;0.73;100.00
33781;BME280;20097;50.832;19.100;2023-04-27T04:15:36;98464.63;;;0.84;100.00
33781;BME280;20097;50.832;19.100;2023-04-27T04:20:40;98468.06;;;0.95;100.00
33781;BME280;20097;50.832;19.100;2023-04-27T04:25:44;98472.31;;;1.07;100.00
33781;BME280;20097;50.832;19.100;2023-04-27T04:30:51;98477.63;;;1.17;100.00
33781;BME280;20097;50.832;19.100;2023-04-27T04:35:55;98482.38;;;1.34;100.00
33781;BME280;20097;50.832;19.100;2023-04-27T04:41:00;98488.75;;;1.52;100.00
33781;BME280;20097;50.832;19.100;2023-04-27T04:46:09;98488.22;;;1.71;100.00
33781;BME280;20097;50.832;19.100;2023-04-27T04:51:13;98496.19;;;1.90;100.00
33781;BME280;20097;50.832;19.100;2023-04-27T04:56:16;98490.47;;;2.08;100.00
33781;BME280;20097;50.832;19.100;2023-04-27T05:01:22;98496.47;;;2.31;100.00
33781;BME280;20097;50.832;19.100;2023-04-27T05:06:26;98504.75;;;2.56;100.00
33781;BME280;20097;50.832;19.100;2023-04-27T05:11:31;98502.50;;;2.74;100.00
33781;BME280;20097;50.832;19.100;2023-04-27T05:16:36;98501.97;;;3.02;100.00
33781;BME280;20097;50.832;19.100;2023-04-27T05:21:40;98504.09;;;3.29;100.00
33781;BME280;20097;50.832;19.100;2023-04-27T05:26:45;98507.97;;;3.55;100.00
33781;BME280;20097;50.832;19.100;2023-04-27T05:31:50;98505.75;;;3.82;100.00
33781;BME280;20097;50.832;19.100;2023-04-27T05:36:55;98519.31;;;4.04;100.00
33781;BME280;20097;50.832;19.100;2023-04-27T05:41:59;98518.63;;;4.33;100.00
33781;BME280;20097;50.832;19.100;2023-04-27T05:47:06;98522.06;;;4.63;100.00
33781;BME280;20097;50.832;19.100;2023-04-27T05:52:10;98522.25;;;4.90;100.00
33781;BME280;20097;50.832;19.100;2023-04-27T05:57:14;98528.72;;;5.24;100.00
33781;BME280;20097;50.832;19.100;2023-04-27T06:02:19;98524.91;;;5.57;100.00
33781;BME280;20097;50.832;19.100;2023-04-27T06:07:24;98533.66;;;5.85;96.98
33781;BME280;20097;50.832;19.100;2023-04-27T06:12:28;98544.94;;;6.12;91.08
33781;BME280;20097;50.832;19.100;2023-04-27T06:17:33;98544.84;;;6.41;88.56
33781;BME280;20097;50.832;19.100;2023-04-27T06:22:38;98542.44;;;6.66;86.02
33781;BME280;20097;50.832;19.100;2023-04-27T06:27:42;98550.13;;;6.85;80.48
33781;BME280;20097;50.832;19.100;2023-04-27T06:32:47;98549.22;;;7.04;79.57
33781;BME280;20097;50.832;19.100;2023-04-27T06:37:52;98548.66;;;7.28;79.83
33781;BME280;20097;50.832;19.100;2023-04-27T06:43:00;98552.97;;;7.37;75.28
33781;BME280;20097;50.832;19.100;2023-04-27T06:48:05;98552.84;;;7.56;74.75
33781;BME280;20097;50.832;19.100;2023-04-27T06:53:09;98559.50;;;7.93;74.93
33781;BME280;20097;50.832;19.100;2023-04-27T06:58:14;98540.75;;;8.07;70.83
33781;BME280;20097;50.832;19.100;2023-04-27T07:03:19;98557.41;;;8.14;68.95
33781;BME280;20097;50.832;19.100;2023-04-27T07:08:24;98555.28;;;8.18;69.16
33781;BME280;20097;50.832;19.100;2023-04-27T07:13:28;98558.84;;;8.34;68.40
33781;BME280;20097;50.832;19.100;2023-04-27T07:18:34;98560.19;;;8.72;67.42
33781;BME280;20097;50.832;19.100;2023-04-27T07:23:38;98569.00;;;8.71;65.18
33781;BME280;20097;50.832;19.100;2023-04-27T07:28:42;98570.88;;;8.95;64.54
33781;BME280;20097;50.832;19.100;2023-04-27T07:33:48;98570.88;;;9.36;62.62
33781;BME280;20097;50.832;19.100;2023-04-27T07:38:52;98568.22;;;9.20;61.89
33781;BME280;20097;50.832;19.100;2023-04-27T07:43:57;98563.63;;;9.14;62.51
33781;BME280;20097;50.832;19.100;2023-04-27T07:49:03;98561.38;;;9.19;62.59
33781;BME280;20097;50.832;19.100;2023-04-27T07:54:07;98569.81;;;9.13;59.60
33781;BME280;20097;50.832;19.100;2023-04-27T07:59:11;98569.13;;;9.03;59.29
33781;BME280;20097;50.832;19.100;2023-04-27T08:04:18;98569.56;;;9.48;59.49
33781;BME280;20097;50.832;19.100;2023-04-27T08:09:22;98583.97;;;9.93;58.79
33781;BME280;20097;50.832;19.100;2023-04-27T08:14:26;98584.81;;;10.17;56.51
33781;BME280;20097;50.832;19.100;2023-04-27T08:19:32;98584.31;;;9.90;56.33
33781;BME280;20097;50.832;19.100;2023-04-27T08:24:36;98585.59;;;9.94;55.92
33781;BME280;20097;50.832;19.100;2023-04-27T08:29:44;98581.03;;;9.88;55.48
33781;BME280;20097;50.832;19.100;2023-04-27T08:34:50;98584.13;;;9.99;55.54
33781;BME280;20097;50.832;19.100;2023-04-27T08:39:54;98588.06;;;9.95;55.41
33781;BME280;20097;50.832;19.100;2023-04-27T08:44:58;98578.75;;;9.68;56.88
33781;BME280;20097;50.832;19.100;2023-04-27T08:50:05;98571.06;;;9.51;58.23
33781;BME280;20097;50.832;19.100;2023-04-27T08:55:09;98580.38;;;9.86;58.06
33781;BME280;20097;50.832;19.100;2023-04-27T09:00:18;98573.22;;;10.20;57.27
33781;BME280;20097;50.832;19.100;2023-04-27T09:05:24;98585.81;;;10.16;55.95
33781;BME280;20097;50.832;19.100;2023-04-27T09:10:29;98585.13;;;10.06;56.34
33781;BME280;20097;50.832;19.100;2023-04-27T09:15:40;98581.38;;;9.93;57.18
33781;BME280;20097;50.832;19.100;2023-04-27T09:20:49;98572.41;;;9.95;58.14
33781;BME280;20097;50.832;19.100;2023-04-27T09:25:53;98576.31;;;9.99;56.28
33781;BME280;20097;50.832;19.100;2023-04-27T09:31:00;98580.88;;;9.97;55.80
33781;BME280;20097;50.832;19.100;2023-04-27T09:36:06;98583.84;;;10.18;55.08
33781;BME280;20097;50.832;19.100;2023-04-27T09:41:10;98585.47;;;10.27;54.62
33781;BME280;20097;50.832;19.100;2023-04-27T09:46:14;98590.84;;;10.26;53.40
33781;BME280;20097;50.832;19.100;2023-04-27T09:51:20;98599.19;;;10.21;51.65
33781;BME280;20097;50.832;19.100;2023-04-27T09:56:31;98592.75;;;10.56;53.57
33781;BME280;20097;50.832;19.100;2023-04-27T10:01:44;98594.13;;;10.28;53.25
33781;BME280;20097;50.832;19.100;2023-04-27T10:06:59;98590.78;;;10.66;54.06
33781;BME280;20097;50.832;19.100;2023-04-27T10:12:14;98598.25;;;10.85;52.50
33781;BME280;20097;50.832;19.100;2023-04-27T10:17:23;98596.97;;;10.81;52.59
33781;BME280;20097;50.832;19.100;2023-04-27T10:22:39;98603.25;;;10.94;52.08
33781;BME280;20097;50.832;19.100;2023-04-27T10:27:47;98602.28;;;11.03;53.08
33781;BME280;20097;50.832;19.100;2023-04-27T10:32:52;98597.00;;;10.65;53.36
33781;BME280;20097;50.832;19.100;2023-04-27T10:38:06;98602.41;;;10.63;53.03
33781;BME280;20097;50.832;19.100;2023-04-27T10:43:11;98608.63;;;10.30;50.73
33781;BME280;20097;50.832;19.100;2023-04-27T10:48:15;98598.88;;;10.87;54.17
33781;BME280;20097;50.832;19.100;2023-04-27T10:53:20;98611.41;;;11.46;51.04
33781;BME280;20097;50.832;19.100;2023-04-27T10:58:25;98622.41;;;11.72;46.24
33781;BME280;20097;50.832;19.100;2023-04-27T11:03:54;98631.03;;;11.34;43.81
33781;BME280;20097;50.832;19.100;2023-04-27T11:09:00;98621.59;;;11.33;50.18
33781;BME280;20097;50.832;19.100;2023-04-27T11:14:04;98618.63;;;11.36;49.62
33781;BME280;20097;50.832;19.100;2023-04-27T11:19:10;98626.03;;;11.25;49.48
33781;BME280;20097;50.832;19.100;2023-04-27T11:24:16;98632.16;;;10.93;47.79
33781;BME280;20097;50.832;19.100;2023-04-27T11:29:20;98617.38;;;10.77;50.12
33781;BME280;20097;50.832;19.100;2023-04-27T11:34:25;98631.44;;;10.52;51.41
33781;BME280;20097;50.832;19.100;2023-04-27T11:39:32;98637.31;;;10.38;50.32
33781;BME280;20097;50.832;19.100;2023-04-27T11:44:37;98635.84;;;10.52;49.03
33781;BME280;20097;50.832;19.100;2023-04-27T11:49:45;98628.38;;;11.03;48.71
33781;BME280;20097;50.832;19.100;2023-04-27T11:54:52;98630.69;;;11.37;48.32
33781;BME280;20097;50.832;19.100;2023-04-27T11:59:59;98638.22;;;11.32;46.82
33781;BME280;20097;50.832;19.100;2023-04-27T12:05:14;98638.66;;;11.05;47.56
33781;BME280;20097;50.832;19.100;2023-04-27T12:10:20;98633.69;;;11.26;48.91
33781;BME280;20097;50.832;19.100;2023-04-27T12:15:24;98619.72;;;11.03;48.38
33781;BME280;20097;50.832;19.100;2023-04-27T12:20:28;98629.78;;;11.22;47.66
33781;BME280;20097;50.832;19.100;2023-04-27T12:25:34;98626.63;;;11.73;47.91
33781;BME280;20097;50.832;19.100;2023-04-27T12:30:39;98625.41;;;12.29;47.50
33781;BME280;20097;50.832;19.100;2023-04-27T12:35:43;98623.59;;;11.23;51.42
33781;BME280;20097;50.832;19.100;2023-04-27T12:40:49;98612.03;;;10.55;56.52
33781;BME280;20097;50.832;19.100;2023-04-27T12:45:53;98601.56;;;9.83;58.34
33781;BME280;20097;50.832;19.100;2023-04-27T12:50:57;98603.22;;;9.92;58.28
33781;BME280;20097;50.832;19.100;2023-04-27T12:56:02;98610.41;;;10.30;56.90
33781;BME280;20097;50.832;19.100;2023-04-27T13:01:07;98615.75;;;10.68;55.18
33781;BME280;20097;50.832;19.100;2023-04-27T13:06:16;98626.75;;;10.94;53.73
33781;BME280;20097;50.832;19.100;2023-04-27T13:11:22;98622.47;;;10.47;53.68
33781;BME280;20097;50.832;19.100;2023-04-27T13:16:26;98621.16;;;10.43;54.95
33781;BME280;20097;50.832;19.100;2023-04-27T13:21:31;98625.72;;;10.17;55.86
33781;BME280;20097;50.832;19.100;2023-04-27T13:26:36;98617.13;;;10.24;56.19
33781;BME280;20097;50.832;19.100;2023-04-27T13:31:41;98626.03;;;10.70;55.40
33781;BME280;20097;50.832;19.100;2023-04-27T13:36:45;98628.25;;;10.97;53.08
33781;BME280;20097;50.832;19.100;2023-04-27T13:41:52;98625.34;;;11.31;53.27
33781;BME280;20097;50.832;19.100;2023-04-27T13:46:56;98632.78;;;11.42;50.74
33781;BME280;20097;50.832;19.100;2023-04-27T13:52:00;98638.47;;;12.14;50.81
33781;BME280;20097;50.832;19.100;2023-04-27T13:57:06;98636.75;;;12.21;49.66
33781;BME280;20097;50.832;19.100;2023-04-27T14:02:10;98638.94;;;11.87;49.71
33781;BME280;20097;50.832;19.100;2023-04-27T14:07:14;98643.22;;;11.88;48.31
33781;BME280;20097;50.832;19.100;2023-04-27T14:12:20;98641.50;;;11.34;47.24
33781;BME280;20097;50.832;19.100;2023-04-27T14:17:24;98647.00;;;11.47;48.59
33781;BME280;20097;50.832;19.100;2023-04-27T14:22:29;98651.63;;;11.29;48.51
33781;BME280;20097;50.832;19.100;2023-04-27T14:27:34;98646.59;;;11.58;48.76
33781;BME280;20097;50.832;19.100;2023-04-27T14:32:39;98664.28;;;11.56;47.66
33781;BME280;20097;50.832;19.100;2023-04-27T14:37:43;98670.13;;;11.20;47.94
33781;BME280;20097;50.832;19.100;2023-04-27T14:42:49;98669.38;;;10.95;48.46
33781;BME280;20097;50.832;19.100;2023-04-27T14:47:53;98661.53;;;10.95;49.17
33781;BME280;20097;50.832;19.100;2023-04-27T14:52:57;98674.78;;;10.85;48.98
33781;BME280;20097;50.832;19.100;2023-04-27T14:58:03;98659.88;;;11.10;49.86
33781;BME280;20097;50.832;19.100;2023-04-27T15:03:07;98664.78;;;11.52;49.24
33781;BME280;20097;50.832;19.100;2023-04-27T15:08:11;98669.97;;;11.60;49.09
33781;BME280;20097;50.832;19.100;2023-04-27T15:13:17;98663.78;;;11.61;49.01
33781;BME280;20097;50.832;19.100;2023-04-27T15:18:21;98663.34;;;11.02;49.36
33781;BME280;20097;50.832;19.100;2023-04-27T15:23:25;98674.78;;;10.93;50.66
33781;BME280;20097;50.832;19.100;2023-04-27T15:28:31;98664.22;;;10.71;51.02
33781;BME280;20097;50.832;19.100;2023-04-27T15:33:35;98673.66;;;10.80;51.52
33781;BME280;20097;50.832;19.100;2023-04-27T15:38:40;98662.56;;;10.54;51.70
33781;BME280;20097;50.832;19.100;2023-04-27T15:43:45;98660.47;;;10.49;52.95
33781;BME280;20097;50.832;19.100;2023-04-27T15:48:49;98658.34;;;10.61;52.83
33781;BME280;20097;50.832;19.100;2023-04-27T15:53:53;98663.16;;;11.04;51.69
33781;BME280;20097;50.832;19.100;2023-04-27T15:58:59;98665.97;;;10.78;51.07
33781;BME280;20097;50.832;19.100;2023-04-27T16:04:03;98671.00;;;10.88;51.93
33781;BME280;20097;50.832;19.100;2023-04-27T16:09:08;98660.97;;;10.45;52.72
33781;BME280;20097;50.832;19.100;2023-04-27T16:14:15;98660.97;;;10.37;53.52
33781;BME280;20097;50.832;19.100;2023-04-27T16:19:19;98659.81;;;10.23;53.33
33781;BME280;20097;50.832;19.100;2023-04-27T16:24:25;98667.47;;;10.25;53.63
33781;BME280;20097;50.832;19.100;2023-04-27T16:29:31;98666.13;;;9.89;54.77
33781;BME280;20097;50.832;19.100;2023-04-27T16:34:35;98667.09;;;9.96;55.55
33781;BME280;20097;50.832;19.100;2023-04-27T16:39:40;98669.69;;;9.96;55.63
33781;BME280;20097;50.832;19.100;2023-04-27T16:44:45;98660.25;;;9.87;55.79
33781;BME280;20097;50.832;19.100;2023-04-27T16:49:49;98661.19;;;9.94;55.99
33781;BME280;20097;50.832;19.100;2023-04-27T16:54:54;98671.00;;;10.00;54.92
33781;BME280;20097;50.832;19.100;2023-04-27T17:00:00;98672.13;;;9.97;55.33
33781;BME280;20097;50.832;19.100;2023-04-27T17:05:04;98676.28;;;9.66;54.89
33781;BME280;20097;50.832;19.100;2023-04-27T17:10:09;98679.16;;;9.47;54.92
33781;BME280;20097;50.832;19.100;2023-04-27T17:15:14;98672.09;;;9.23;54.97
33781;BME280;20097;50.832;19.100;2023-04-27T17:20:19;98675.25;;;9.09;55.41
33781;BME280;20097;50.832;19.100;2023-04-27T17:25:24;98671.25;;;8.89;55.77
33781;BME280;20097;50.832;19.100;2023-04-27T17:30:29;98670.31;;;8.73;56.55
33781;BME280;20097;50.832;19.100;2023-04-27T17:35:33;98669.91;;;8.60;56.90
33781;BME280;20097;50.832;19.100;2023-04-27T17:40:37;98668.28;;;8.41;60.04
33781;BME280;20097;50.832;19.100;2023-04-27T17:45:43;98665.47;;;8.34;60.10
33781;BME280;20097;50.832;19.100;2023-04-27T17:50:48;98668.59;;;8.03;62.81
33781;BME280;20097;50.832;19.100;2023-04-27T17:55:52;98654.81;;;7.58;67.11
33781;BME280;20097;50.832;19.100;2023-04-27T18:00:57;98663.47;;;7.22;70.80
33781;BME280;20097;50.832;19.100;2023-04-27T18:06:02;98666.50;;;6.80;74.98
33781;BME280;20097;50.832;19.100;2023-04-27T18:11:09;98670.25;;;6.40;79.42
33781;BME280;20097;50.832;19.100;2023-04-27T18:16:14;98671.63;;;6.15;81.62
33781;BME280;20097;50.832;19.100;2023-04-27T18:21:18;98684.44;;;5.98;83.11
33781;BME280;20097;50.832;19.100;2023-04-27T18:26:22;98691.75;;;5.74;85.52
33781;BME280;20097;50.832;19.100;2023-04-27T18:31:28;98697.44;;;5.68;85.39
33781;BME280;20097;50.832;19.100;2023-04-27T18:36:32;98700.66;;;5.41;89.81
33781;BME280;20097;50.832;19.100;2023-04-27T18:41:37;98700.22;;;5.06;90.41
33781;BME280;20097;50.832;19.100;2023-04-27T18:46:42;98704.47;;;4.86;93.00
33781;BME280;20097;50.832;19.100;2023-04-27T18:51:48;98700.66;;;4.81;97.55
33781;BME280;20097;50.832;19.100;2023-04-27T18:56:52;98708.50;;;4.70;99.07
33781;BME280;20097;50.832;19.100;2023-04-27T19:01:57;98713.28;;;4.54;100.00
33781;BME280;20097;50.832;19.100;2023-04-27T19:07:02;98709.69;;;4.45;100.00
33781;BME280;20097;50.832;19.100;2023-04-27T19:12:06;98704.13;;;4.29;100.00
33781;BME280;20097;50.832;19.100;2023-04-27T19:17:11;98712.31;;;4.02;100.00
33781;BME280;20097;50.832;19.100;2023-04-27T19:22:16;98721.41;;;3.86;100.00
33781;BME280;20097;50.832;19.100;2023-04-27T19:27:20;98713.94;;;3.72;100.00
33781;BME280;20097;50.832;19.100;2023-04-27T19:32:26;98727.44;;;3.75;100.00
33781;BME280;20097;50.832;19.100;2023-04-27T19:37:30;98728.25;;;3.65;100.00
33781;BME280;20097;50.832;19.100;2023-04-27T19:42:34;98723.38;;;3.51;100.00
33781;BME280;20097;50.832;19.100;2023-04-27T19:47:40;98724.28;;;3.50;100.00
33781;BME280;20097;50.832;19.100;2023-04-27T19:52:44;98722.66;;;3.49;100.00
33781;BME280;20097;50.832;19.100;2023-04-27T19:57:48;98721.03;;;3.48;100.00
33781;BME280;20097;50.832;19.100;2023-04-27T20:02:55;98722.16;;;3.55;100.00
33781;BME280;20097;50.832;19.100;2023-04-27T20:07:59;98722.91;;;3.46;100.00
33781;BME280;20097;50.832;19.100;2023-04-27T20:13:04;98726.53;;;3.32;100.00
33781;BME280;20097;50.832;19.100;2023-04-27T20:18:09;98723.38;;;3.40;100.00
33781;BME280;20097;50.832;19.100;2023-04-27T20:23:14;98729.09;;;3.43;100.00
33781;BME280;20097;50.832;19.100;2023-04-27T20:28:19;98724.91;;;3.31;100.00
33781;BME280;20097;50.832;19.100;2023-04-27T20:33:24;98724.06;;;3.42;100.00
33781;BME280;20097;50.832;19.100;2023-04-27T20:38:29;98732.63;;;3.42;100.00
33781;BME280;20097;50.832;19.100;2023-04-27T20:43:34;98732.63;;;3.42;100.00
33781;BME280;20097;50.832;19.100;2023-04-27T20:48:42;98737.06;;;3.40;100.00
33781;BME280;20097;50.832;19.100;2023-04-27T20:53:46;98735.41;;;3.61;100.00
33781;BME280;20097;50.832;19.100;2023-04-27T20:58:50;98740.22;;;3.77;100.00
33781;BME280;20097;50.832;19.100;2023-04-27T21:03:56;98737.47;;;3.89;100.00
33781;BME280;20097;50.832;19.100;2023-04-27T21:09:00;98743.31;;;4.02;100.00
33781;BME280;20097;50.832;19.100;2023-04-27T21:14:05;98743.72;;;4.18;100.00
33781;BME280;20097;50.832;19.100;2023-04-27T21:19:10;98733.59;;;4.27;100.00
33781;BME280;20097;50.832;19.100;2023-04-27T21:24:17;98732.63;;;4.39;100.00
33781;BME280;20097;50.832;19.100;2023-04-27T21:29:21;98742.91;;;4.50;100.00
33781;BME280;20097;50.832;19.100;2023-04-27T21:34:27;98736.56;;;4.54;100.00
33781;BME280;20097;50.832;19.100;2023-04-27T21:39:31;98738.88;;;4.57;100.00
33781;BME280;20097;50.832;19.100;2023-04-27T21:44:35;98735.59;;;4.55;100.00
33781;BME280;20097;50.832;19.100;2023-04-27T21:49:40;98744.38;;;4.63;100.00
33781;BME280;20097;50.832;19.100;2023-04-27T21:54:44;98740.56;;;4.67;100.00
33781;BME280;20097;50.832;19.100;2023-04-27T21:59:48;98738.38;;;4.63;100.00
33781;BME280;20097;50.832;19.100;2023-04-27T22:04:54;98737.41;;;4.64;100.00
33781;BME280;20097;50.832;19.100;2023-04-27T22:09:59;98740.00;;;4.64;100.00
33781;BME280;20097;50.832;19.100;2023-04-27T22:15:03;98739.66;;;4.68;100.00
33781;BME280;20097;50.832;19.100;2023-04-27T22:20:10;98743.28;;;4.66;100.00
33781;BME280;20097;50.832;19.100;2023-04-27T22:25:14;98745.75;;;4.67;100.00
33781;BME280;20097;50.832;19.100;2023-04-27T22:30:19;98752.31;;;4.71;100.00
33781;BME280;20097;50.832;19.100;2023-04-27T22:35:25;98748.19;;;4.69;100.00
33781;BME280;20097;50.832;19.100;2023-04-27T22:40:30;98740.69;;;4.66;100.00
33781;BME280;20097;50.832;19.100;2023-04-27T22:45:34;98733.19;;;4.63;100.00
33781;BME280;20097;50.832;19.100;2023-04-27T22:50:42;98732.50;;;4.61;100.00
33781;BME280;20097;50.832;19.100;2023-04-27T22:55:45;98727.78;;;4.66;100.00
33781;BME280;20097;50.832;19.100;2023-04-27T23:00:50;98731.00;;;4.58;100.00
33781;BME280;20097;50.832;19.100;2023-04-27T23:05:55;98732.13;;;4.65;100.00
33781;BME280;20097;50.832;19.100;2023-04-27T23:11:02;98737.19;;;4.67;100.00
33781;BME280;20097;50.832;19.100;2023-04-27T23:16:06;98742.41;;;4.76;100.00
33781;BME280;20097;50.832;19.100;2023-04-27T23:21:13;98741.97;;;4.71;100.00
33781;BME280;20097;50.832;19.100;2023-04-27T23:26:17;98737.59;;;4.72;100.00
33781;BME280;20097;50.832;19.100;2023-04-27T23:31:21;98733.56;;;4.79;100.00
33781;BME280;20097;50.832;19.100;2023-04-27T23:36:27;98736.03;;;4.80;100.00
33781;BME280;20097;50.832;19.100;2023-04-27T23:41:31;98737.13;;;4.78;100.00
33781;BME280;20097;50.832;19.100;2023-04-27T23:46:36;98727.97;;;4.74;100.00
33781;BME280;20097;50.832;19.100;2023-04-27T23:51:42;98732.06;;;4.76;100.00
33781;BME280;20097;50.832;19.100;2023-04-27T23:56:46;98721.78;;;4.65;100.00
